Time;durP1;ratioP1;P1;durP2;ratioP2;P2;SDS_P1;SDS_P2;PMS_P1;PMS_P2;Temp;Humidity;BMP_temperature;BMP_pressure;BME280_temperature;BME280_humidity;BME280_pressure;Samples;Min_cycle;Max_cycle;Signal;HPM_P1;HPM_P2
2021/03/27 00:02:02;;;;;;;16.00;3.00;;;6.20;99.90;;;;;;5011063;28;20372;-80
2021/03/27 00:04:49;;;;;;;;;;;6.20;99.90;;;;;;5011085;28;20549;-80
2021/03/27 00:07:32;;;;;;;16.00;3.17;;;6.20;99.90;;;;;;5000561;28;19999;-80
2021/03/27 00:10:21;;;;;;;24.30;4.32;;;6.10;99.90;;;;;;5003205;28;20050;-80
2021/03/27 00:13:43;;;;;;;25.92;4.22;;;6.10;99.90;;;;;;5014747;28;20062;-80
2021/03/27 00:16:31;;;;;;;17.73;3.38;;;6.10;99.90;;;;;;4947970;29;20051;-80
2021/03/27 00:19:20;;;;;;;18.15;3.20;;;6.10;99.90;;;;;;4953120;28;20070;-80
2021/03/27 00:22:00;;;;;;;18.98;3.85;;;6.10;99.90;;;;;;4953891;28;20106;-80
2021/03/27 00:24:52;;;;;;;23.77;3.83;;;6.10;99.90;;;;;;4950889;28;20047;-80
2021/03/27 00:27:24;;;;;;;25.30;4.38;;;6.20;99.90;;;;;;4938984;28;20094;-81
2021/03/27 00:29:55;;;;;;;29.80;4.65;;;6.20;99.90;;;;;;4951588;28;20478;-80
2021/03/27 00:32:40;;;;;;;28.50;4.43;;;6.20;99.90;;;;;;4931198;28;20123;-80
2021/03/27 00:35:28;;;;;;;31.50;4.43;;;6.20;99.90;;;;;;4941279;28;20066;-81
2021/03/27 00:37:59;;;;;;;31.80;5.20;;;6.30;99.90;;;;;;4939604;29;20051;-80
2021/03/27 00:40:29;;;;;;;25.27;4.25;;;6.30;99.90;;;;;;4935747;28;20146;-81
2021/03/27 00:43:06;;;;;;;24.33;5.55;;;6.30;99.90;;;;;;4937768;29;20079;-80
2021/03/27 00:45:47;;;;;;;34.83;6.07;;;6.30;99.90;;;;;;4952631;29;20126;-80
2021/03/27 00:48:21;;;;;;;26.17;3.67;;;6.40;99.90;;;;;;5005160;28;20055;-80
2021/03/27 00:50:55;;;;;;;23.88;3.65;;;6.40;99.90;;;;;;5002433;28;20058;-80
2021/03/27 00:53:38;;;;;;;19.33;3.20;;;6.50;99.90;;;;;;4994219;28;20057;-81
2021/03/27 00:56:14;;;;;;;22.10;3.47;;;6.50;99.90;;;;;;4993601;28;20050;-80
2021/03/27 00:58:49;;;;;;;21.50;3.53;;;6.60;99.90;;;;;;5009271;28;20050;-80
2021/03/27 01:01:19;;;;;;;18.52;3.20;;;6.60;99.90;;;;;;4985325;28;20050;-81
2021/03/27 01:03:59;;;;;;;14.48;3.20;;;6.60;99.90;;;;;;5010497;28;20400;-80
2021/03/27 01:06:51;;;;;;;20.00;3.78;;;6.60;99.90;;;;;;4987438;28;20054;-80
2021/03/27 01:09:25;;;;;;;11.48;2.70;;;6.60;99.90;;;;;;5008917;28;20046;-80
2021/03/27 01:12:02;;;;;;;16.52;3.30;;;6.60;99.90;;;;;;4995484;28;20051;-80
2021/03/27 01:14:37;;;;;;;18.63;3.58;;;6.60;99.90;;;;;;5000548;28;20443;-81
2021/03/27 01:17:06;;;;;;;21.33;3.55;;;6.60;99.90;;;;;;5001407;28;20049;-80
2021/03/27 01:19:44;;;;;;;25.00;3.33;;;6.60;99.90;;;;;;4993867;28;20054;-80
2021/03/27 01:22:13;;;;;;;20.33;4.47;;;6.60;99.90;;;;;;5003283;28;20050;-80
2021/03/27 01:24:40;;;;;;;26.00;3.83;;;6.60;99.90;;;;;;4999484;28;20054;-80
2021/03/27 01:27:13;;;;;;;26.20;4.15;;;6.60;99.90;;;;;;5006782;28;20500;-80
2021/03/27 01:29:52;;;;;;;33.33;3.70;;;6.60;99.90;;;;;;5004103;28;20050;-80
2021/03/27 01:32:54;;;;;;;23.02;3.03;;;6.60;99.90;;;;;;5008213;28;20430;-80
2021/03/27 01:35:31;;;;;;;25.77;4.03;;;6.60;99.90;;;;;;4932981;29;20048;-80
2021/03/27 01:38:10;;;;;;;26.23;4.82;;;6.60;99.90;;;;;;4930752;29;20075;-81
2021/03/27 01:41:06;;;;;;;21.63;3.95;;;6.60;99.90;;;;;;4918090;29;20413;-80
2021/03/27 01:43:54;;;;;;;23.60;3.97;;;6.60;99.90;;;;;;4930997;29;20387;-80
2021/03/27 01:46:49;;;;;;;18.08;3.10;;;6.60;99.90;;;;;;4929117;29;20055;-80
2021/03/27 01:49:38;;;;;;;17.27;2.90;;;6.60;99.90;;;;;;4931262;29;20056;-80
2021/03/27 01:52:08;;;;;;;17.02;3.15;;;6.70;99.90;;;;;;4945447;29;20055;-80
2021/03/27 01:55:04;;;;;;;23.45;3.50;;;6.70;99.90;;;;;;4936047;29;20490;-80
2021/03/27 01:58:11;;;;;;;17.85;3.00;;;6.80;99.90;;;;;;4873279;29;20618;-81
2021/03/27 02:00:58;;;;;;;16.98;3.22;;;6.80;99.90;;;;;;4843336;29;20144;-80
2021/03/27 02:03:39;;;;;;;20.92;3.15;;;6.80;99.90;;;;;;4825572;29;20072;-81
2021/03/27 02:06:18;;;;;;;25.60;3.30;;;6.90;99.90;;;;;;4839491;29;20143;-80
2021/03/27 02:09:11;;;;;;;24.23;3.53;;;6.90;99.90;;;;;;4827811;29;20054;-80
2021/03/27 02:11:43;;;;;;;21.33;2.97;;;6.90;99.90;;;;;;4856274;29;20048;-81
2021/03/27 02:14:24;;;;;;;21.50;3.88;;;6.90;99.90;;;;;;4929013;29;20059;-81
2021/03/27 02:17:08;;;;;;;26.50;4.47;;;6.90;99.90;;;;;;4918555;29;20083;-81
2021/03/27 02:20:06;;;;;;;17.25;2.65;;;6.90;99.90;;;;;;4916749;29;20062;-80
2021/03/27 02:22:39;;;;;;;23.13;4.32;;;6.90;99.90;;;;;;4930034;29;20110;-80
2021/03/27 02:25:08;;;;;;;22.17;3.72;;;6.90;99.90;;;;;;4925869;29;20128;-80
2021/03/27 02:27:42;;;;;;;21.35;3.50;;;6.90;99.90;;;;;;4915671;29;20407;-80
2021/03/27 02:30:30;;;;;;;21.20;3.13;;;6.90;99.90;;;;;;4929940;29;20588;-80
2021/03/27 02:33:21;;;;;;;22.55;3.45;;;6.90;99.90;;;;;;4933166;29;20112;-81
2021/03/27 02:35:50;;;;;;;19.98;2.83;;;6.90;99.90;;;;;;4962465;28;20104;-81
2021/03/27 02:38:31;;;;;;;21.45;3.67;;;6.90;99.90;;;;;;4991848;28;20057;-81
2021/03/27 02:41:28;;;;;;;22.55;2.38;;;6.90;99.90;;;;;;4995051;28;20050;-81
2021/03/27 02:44:05;;;;;;;15.35;2.53;;;6.90;99.90;;;;;;4982470;28;20050;-81
2021/03/27 02:46:47;;;;;;;20.30;2.60;;;6.90;99.90;;;;;;4991009;28;20388;-80
2021/03/27 02:49:31;;;;;;;13.98;2.90;;;6.90;99.90;;;;;;4998867;28;20059;-81
2021/03/27 02:52:26;;;;;;;23.58;4.60;;;6.90;99.90;;;;;;5009678;28;20478;-80
2021/03/27 02:55:25;;;;;;;15.88;3.00;;;6.90;99.90;;;;;;5010604;28;20119;-81
2021/03/27 02:58:18;;;;;;;16.52;3.05;;;6.90;99.90;;;;;;4993197;28;20050;-81
2021/03/27 03:01:09;;;;;;;23.20;3.15;;;6.90;99.90;;;;;;5012662;28;20085;-81
2021/03/27 03:04:00;;;;;;;14.98;2.38;;;6.90;99.90;;;;;;5000265;28;20432;-81
2021/03/27 03:06:39;;;;;;;22.25;3.15;;;7.00;99.90;;;;;;5008759;28;20057;-80
2021/03/27 03:09:17;;;;;;;19.67;3.35;;;7.00;99.90;;;;;;5010025;28;20175;-80
2021/03/27 03:12:13;;;;;;;12.63;2.28;;;7.00;99.90;;;;;;5013808;28;20124;-80
2021/03/27 03:14:42;;;;;;;15.77;2.72;;;7.00;99.90;;;;;;4999616;28;20057;-81
2021/03/27 03:17:31;;;;;;;16.00;2.30;;;7.00;99.90;;;;;;5022265;28;20054;-81
2021/03/27 03:20:24;;;;;;;13.75;1.95;;;7.00;99.90;;;;;;4998296;28;20136;-81
2021/03/27 03:23:06;;;;;;;13.05;2.65;;;7.00;99.90;;;;;;4977436;28;20097;-81
2021/03/27 03:25:39;;;;;;;14.15;2.70;;;7.00;99.90;;;;;;4996571;28;20096;-80
2021/03/27 03:28:24;;;;;;;13.55;2.20;;;7.00;99.90;;;;;;5010983;28;20455;-81
2021/03/27 03:31:19;;;;;;;9.75;1.67;;;7.00;99.90;;;;;;5010592;28;20442;-81
2021/03/27 03:34:02;;;;;;;13.98;2.88;;;7.00;99.90;;;;;;5011310;28;20046;-81
2021/03/27 03:36:48;;;;;;;11.52;2.17;;;6.90;99.90;;;;;;5014603;28;20050;-81
2021/03/27 03:39:21;;;;;;;16.23;2.38;;;7.00;99.90;;;;;;4999152;28;20050;-81
2021/03/27 03:41:56;;;;;;;16.90;2.17;;;6.90;99.90;;;;;;5015545;28;20427;-81
2021/03/27 03:44:32;;;;;;;14.38;1.75;;;6.90;99.90;;;;;;5003530;28;20049;-80
2021/03/27 03:47:29;;;;;;;14.27;2.25;;;6.90;99.90;;;;;;5004113;28;20046;-81
2021/03/27 03:50:16;;;;;;;19.73;2.55;;;6.90;99.90;;;;;;5003114;28;20505;-80
2021/03/27 03:53:16;;;;;;;14.27;2.55;;;6.90;99.90;;;;;;4999145;28;20051;-80
2021/03/27 03:56:09;;;;;;;18.80;2.15;;;6.90;99.90;;;;;;4928208;28;20093;-80
2021/03/27 03:59:08;;;;;;;15.70;2.05;;;6.90;99.90;;;;;;4951134;28;20047;-80
2021/03/27 04:02:00;;;;;;;14.20;2.45;;;6.90;99.90;;;;;;4897287;29;20128;-80
2021/03/27 04:04:49;;;;;;;14.52;2.47;;;6.80;99.90;;;;;;4841884;29;20165;-81
2021/03/27 04:07:26;;;;;;;16.77;3.05;;;6.80;99.90;;;;;;4854407;29;20053;-81
2021/03/27 04:10:17;;;;;;;16.00;2.30;;;6.80;99.90;;;;;;4845419;29;20050;-80
2021/03/27 04:12:50;;;;;;;11.88;2.33;;;6.80;99.90;;;;;;4835674;29;20141;-80
2021/03/27 04:15:27;;;;;;;16.50;3.13;;;6.80;99.90;;;;;;4846029;29;20107;-81
2021/03/27 04:17:57;;;;;;;18.93;2.53;;;6.80;99.90;;;;;;4845017;29;20058;-80
2021/03/27 04:20:50;;;;;;;14.45;2.55;;;6.80;99.90;;;;;;4843141;29;20303;-81
2021/03/27 04:23:31;;;;;;;15.73;2.03;;;6.80;99.90;;;;;;4855512;29;20045;-80
2021/03/27 04:26:19;;;;;;;18.60;2.97;;;6.80;99.90;;;;;;4842129;29;20133;-80
2021/03/27 04:28:56;;;;;;;25.98;3.22;;;6.80;99.90;;;;;;4830425;29;20169;-80
2021/03/27 04:31:39;;;;;;;15.40;2.53;;;6.70;99.90;;;;;;4826944;29;20061;-80
2021/03/27 04:34:29;;;;;;;16.70;2.22;;;6.70;99.90;;;;;;4874565;29;20053;-81
2021/03/27 04:37:09;;;;;;;20.23;2.75;;;6.70;99.90;;;;;;4912027;29;20094;-81
2021/03/27 04:39:38;;;;;;;24.58;3.88;;;6.60;99.90;;;;;;4937990;29;20051;-80
2021/03/27 04:42:19;;;;;;;19.48;2.70;;;6.60;99.90;;;;;;4994710;28;20082;-80
2021/03/27 04:44:55;;;;;;;22.63;2.90;;;6.60;99.90;;;;;;5012300;28;20050;-80
2021/03/27 04:47:29;;;;;;;23.35;2.45;;;6.60;99.90;;;;;;4976501;28;20054;-80
2021/03/27 04:50:03;;;;;;;14.77;2.97;;;6.60;99.90;;;;;;4996040;28;20053;-80
2021/03/27 04:52:49;;;;;;;19.23;2.67;;;6.60;99.90;;;;;;4993960;28;20152;-80
2021/03/27 04:55:33;;;;;;;15.70;2.58;;;6.60;99.90;;;;;;5011088;28;20049;-80
2021/03/27 04:58:08;;;;;;;16.10;2.50;;;6.60;99.90;;;;;;5012902;28;20046;-81
2021/03/27 05:00:42;;;;;;;16.50;2.38;;;6.50;99.90;;;;;;4997464;28;20048;-81
2021/03/27 05:03:22;;;;;;;19.35;2.58;;;6.50;99.90;;;;;;5012605;28;20353;-80
2021/03/27 05:06:04;;;;;;;20.90;2.92;;;6.60;99.90;;;;;;4996051;28;20545;-81
2021/03/27 05:08:52;;;;;;;13.55;2.20;;;6.60;99.90;;;;;;5010379;28;20073;-80
2021/03/27 05:11:48;;;;;;;15.60;2.63;;;6.60;99.90;;;;;;4997563;28;20104;-80
2021/03/27 05:14:51;;;;;;;17.88;2.72;;;6.60;99.90;;;;;;5009106;28;20050;-80
2021/03/27 05:17:20;;;;;;;16.00;2.97;;;6.50;99.90;;;;;;5010837;28;20045;-80
2021/03/27 05:19:56;;;;;;;14.77;3.33;;;6.50;99.90;;;;;;5012106;28;20046;-80
2021/03/27 05:22:33;;;;;;;21.58;2.58;;;6.50;99.90;;;;;;5010264;28;20050;-80
2021/03/27 05:25:20;;;;;;;19.83;3.50;;;6.50;99.90;;;;;;5012846;28;20412;-80
2021/03/27 05:28:09;;;;;;;17.80;3.03;;;6.50;99.90;;;;;;4994611;28;20046;-80
2021/03/27 05:30:54;;;;;;;19.92;3.05;;;6.40;99.90;;;;;;4991232;28;20444;-81
2021/03/27 05:33:31;;;;;;;14.48;2.35;;;6.40;99.90;;;;;;5009188;28;20347;-80
2021/03/27 05:36:06;;;;;;;15.57;3.47;;;6.40;99.90;;;;;;5011049;28;20046;-80
2021/03/27 05:38:47;;;;;;;10.88;2.10;;;6.40;99.90;;;;;;5012275;28;20054;-80
2021/03/27 05:41:36;;;;;;;15.18;2.60;;;6.40;99.90;;;;;;5014060;28;20038;-81
2021/03/27 05:44:24;;;;;;;18.27;2.83;;;6.40;99.90;;;;;;5013793;28;20046;-80
2021/03/27 05:47:27;;;;;;;14.87;2.87;;;6.50;99.90;;;;;;5007050;28;20132;-80
2021/03/27 05:50:00;;;;;;;14.13;2.65;;;6.50;99.90;;;;;;5011202;28;20049;-81
2021/03/27 05:52:54;;;;;;;13.82;2.60;;;6.50;99.90;;;;;;5012494;28;20546;-80
2021/03/27 05:55:37;;;;;;;20.38;3.03;;;6.50;99.90;;;;;;5008787;28;20396;-81
2021/03/27 05:58:25;;;;;;;24.92;3.03;;;6.50;99.90;;;;;;4997095;28;20103;-80
2021/03/27 06:00:55;;;;;;;19.77;3.08;;;6.50;99.90;;;;;;5009185;28;20368;-80
2021/03/27 06:03:49;;;;;;;18.25;2.75;;;6.50;99.90;;;;;;5011493;28;20053;-80
2021/03/27 06:06:40;;;;;;;22.38;3.15;;;6.50;99.90;;;;;;5011028;28;20053;-81
2021/03/27 06:09:32;;;;;;;12.90;2.60;;;6.50;99.90;;;;;;5008272;28;20050;-81
2021/03/27 06:12:19;;;;;;;22.95;3.53;;;6.50;99.90;;;;;;5012664;28;20538;-80
2021/03/27 06:15:05;;;;;;;19.65;3.78;;;6.50;99.90;;;;;;4930087;29;20448;-80
2021/03/27 06:17:49;;;;;;;22.40;3.20;;;6.60;99.90;;;;;;4943591;28;20051;-80
2021/03/27 06:20:35;;;;;;;18.20;3.13;;;6.60;99.90;;;;;;4929505;28;20584;-80
2021/03/27 06:23:32;;;;;;;21.13;3.50;;;6.60;99.90;;;;;;4932917;29;20054;-81
2021/03/27 06:25:58;;;;;;;15.10;2.55;;;6.60;99.90;;;;;;4951487;29;20147;-80
2021/03/27 06:28:42;;;;;;;17.17;2.95;;;6.60;99.90;;;;;;4951596;28;20556;-80
2021/03/27 06:31:26;;;;;;;14.27;3.15;;;6.70;99.90;;;;;;4948031;28;20367;-81
2021/03/27 06:34:01;;;;;;;20.58;3.58;;;6.70;99.90;;;;;;4918505;29;20103;-81
2021/03/27 06:36:46;;;;;;;17.17;2.70;;;6.70;99.90;;;;;;4951429;28;20043;-82
2021/03/27 06:39:30;;;;;;;20.27;3.05;;;6.70;99.90;;;;;;4934723;29;20054;-80
2021/03/27 06:41:59;;;;;;;16.77;2.90;;;6.70;99.90;;;;;;4933478;29;20047;-80
2021/03/27 06:44:37;;;;;;;;;;;6.80;99.90;;;;;;4942012;28;20051;-80
2021/03/27 06:47:10;;;;;;;23.38;3.20;;;6.90;99.90;;;;;;4952626;29;19932;-80
2021/03/27 06:49:45;;;;;;;22.75;3.30;;;6.90;99.90;;;;;;4951161;28;20130;-80
2021/03/27 06:52:43;;;;;;;17.65;3.10;;;7.00;99.90;;;;;;4969735;28;20545;-80
2021/03/27 06:55:31;;;;;;;18.00;3.17;;;7.10;99.90;;;;;;5008606;28;20057;-80
2021/03/27 06:58:28;;;;;;;12.63;2.67;;;7.20;99.90;;;;;;5016041;28;20103;-80
2021/03/27 07:01:13;;;;;;;19.35;2.63;;;7.30;99.90;;;;;;5006782;28;20472;-80
2021/03/27 07:03:58;;;;;;;16.85;2.30;;;7.30;99.90;;;;;;5015145;28;20056;-80
2021/03/27 07:07:02;;;;;;;15.60;2.58;;;7.40;99.90;;;;;;5013435;28;20492;-80
2021/03/27 07:10:06;;;;;;;11.27;1.80;;;7.40;99.90;;;;;;5008123;28;20973;-81
2021/03/27 07:13:03;;;;;;;11.85;2.25;;;7.40;99.90;;;;;;5019804;28;20136;-80
2021/03/27 07:15:43;;;;;;;12.95;2.00;;;7.40;99.90;;;;;;5013722;28;20076;-80
2021/03/27 07:18:14;;;;;;;14.23;2.17;;;7.40;99.90;;;;;;5012677;28;20096;-79
2021/03/27 07:21:05;;;;;;;7.97;1.48;;;7.40;99.90;;;;;;5009695;28;20515;-80
2021/03/27 07:23:49;;;;;;;12.40;1.77;;;7.40;99.90;;;;;;5011716;28;20046;-79
2021/03/27 07:26:30;;;;;;;11.35;1.80;;;7.50;99.90;;;;;;5014492;28;20042;-80
2021/03/27 07:29:02;;;;;;;11.77;1.90;;;7.60;99.90;;;;;;5015021;28;20052;-80
2021/03/27 07:32:02;;;;;;;11.88;1.80;;;7.60;99.90;;;;;;5012305;28;20104;-80
2021/03/27 07:34:42;;;;;;;7.97;1.80;;;7.70;99.90;;;;;;5004380;28;20074;-80
2021/03/27 07:38:00;;;;;;;10.43;2.25;;;7.80;99.90;;;;;;5011939;28;20050;-80
2021/03/27 07:40:43;;;;;;;12.32;2.47;;;7.90;99.90;;;;;;5001207;28;20051;-80
2021/03/27 07:43:31;;;;;;;18.88;2.40;;;8.00;99.90;;;;;;5010364;28;20045;-80
2021/03/27 07:45:57;;;;;;;20.98;2.47;;;8.10;99.90;;;;;;5014843;28;20052;-80
2021/03/27 07:48:36;;;;;;;16.85;3.33;;;8.20;99.90;;;;;;5010244;28;20061;-80
2021/03/27 07:51:40;;;;;;;13.63;2.45;;;8.30;99.90;;;;;;4996689;28;20046;-80
2021/03/27 07:54:41;;;;;;;14.07;2.40;;;8.40;99.90;;;;;;5009174;28;20050;-80
2021/03/27 07:57:07;;;;;;;14.05;2.15;;;8.60;99.90;;;;;;5009849;28;20049;-80
2021/03/27 07:59:52;;;;;;;14.95;2.55;;;8.70;99.90;;;;;;5012911;28;20111;-80
2021/03/27 08:02:39;;;;;;;21.65;2.92;;;8.80;99.90;;;;;;5003045;28;20042;-80
2021/03/27 08:05:06;;;;;;;12.38;2.30;;;9.00;99.90;;;;;;5009192;28;20045;-80
2021/03/27 08:07:51;;;;;;;11.35;1.92;;;9.10;99.90;;;;;;4995304;28;20049;-80
2021/03/27 08:10:31;;;;;;;7.93;2.10;;;9.20;99.90;;;;;;5007515;28;20041;-80
2021/03/27 08:13:01;;;;;;;10.57;2.28;;;9.40;99.90;;;;;;4978337;28;20045;-80
2021/03/27 08:15:27;;;;;;;13.02;1.95;;;9.50;99.90;;;;;;5007762;28;20096;-80
2021/03/27 08:18:11;;;;;;;11.35;2.20;;;9.70;99.90;;;;;;4993697;28;20076;-80
2021/03/27 08:21:01;;;;;;;9.30;1.67;;;9.90;99.90;;;;;;5001124;28;20439;-80
2021/03/27 08:23:51;;;;;;;13.43;2.72;;;10.20;99.90;;;;;;5008570;28;20110;-80
2021/03/27 08:26:26;;;;;;;12.23;2.25;;;10.30;99.90;;;;;;5010057;28;20480;-79
2021/03/27 08:29:28;;;;;;;9.95;2.70;;;10.50;99.90;;;;;;5003588;28;20064;-80
2021/03/27 08:32:26;;;;;;;18.30;3.05;;;10.60;99.90;;;;;;5004095;28;20444;-80
2021/03/27 08:35:04;;;;;;;7.32;1.60;;;10.60;99.90;;;;;;5003057;28;20049;-80
2021/03/27 08:37:56;;;;;;;7.43;1.65;;;10.40;99.90;;;;;;5006512;28;20046;-80
2021/03/27 08:40:49;;;;;;;9.05;1.40;;;10.30;99.90;;;;;;5006994;28;20045;-80
2021/03/27 08:43:36;;;;;;;6.57;1.35;;;10.20;99.90;;;;;;4997652;28;20053;-80
2021/03/27 08:46:39;;;;;;;9.32;1.75;;;10.10;99.90;;;;;;4976096;28;20100;-80
2021/03/27 08:49:43;;;;;;;11.60;1.92;;;10.00;99.90;;;;;;5008656;28;20084;-80
2021/03/27 08:52:39;;;;;;;12.88;1.92;;;10.10;99.90;;;;;;5004962;28;20046;-80
2021/03/27 08:55:29;;;;;;;11.52;2.45;;;10.10;99.90;;;;;;4992657;28;20553;-80
2021/03/27 08:58:10;;;;;;;13.25;1.80;;;10.20;99.90;;;;;;4989266;28;20128;-80
2021/03/27 09:01:24;;;;;;;14.45;1.98;;;10.40;99.90;;;;;;5008529;28;20061;-89
2021/03/27 09:04:26;;;;;;;10.45;2.10;;;10.50;99.90;;;;;;4932627;29;20047;-84
2021/03/27 09:07:10;;;;;;;10.25;2.22;;;10.60;99.90;;;;;;4932004;28;20055;-85
2021/03/27 09:09:51;;;;;;;18.00;2.42;;;10.70;99.90;;;;;;4931776;29;20043;-85
2021/03/27 09:12:44;;;;;;;13.00;2.47;;;10.80;99.90;;;;;;4959345;28;20476;-85
2021/03/27 09:15:34;;;;;;;14.30;2.10;;;10.90;99.90;;;;;;4952205;28;20432;-86
2021/03/27 09:18:25;;;;;;;12.88;2.42;;;11.00;99.90;;;;;;4967311;28;20051;-84
2021/03/27 09:21:25;;;;;;;11.00;2.25;;;11.10;99.90;;;;;;4963150;28;20102;-85
2021/03/27 09:24:30;;;;;;;13.70;2.40;;;11.20;99.90;;;;;;4948319;28;20077;-85
2021/03/27 09:27:14;;;;;;;11.40;2.05;;;11.20;99.90;;;;;;4948145;28;20047;-85
2021/03/27 09:29:51;;;;;;;15.48;2.22;;;11.30;99.90;;;;;;4961566;28;20073;-85
2021/03/27 09:32:23;;;;;;;12.38;2.58;;;11.40;99.90;;;;;;4950596;28;20047;-86
2021/03/27 09:35:30;;;;;;;11.50;1.88;;;11.50;99.90;;;;;;4967106;28;20113;-86
2021/03/27 09:38:05;;;;;;;12.80;2.17;;;11.60;99.90;;;;;;4948693;28;20057;-85
2021/03/27 09:40:33;;;;;;;9.10;1.88;;;11.70;99.90;;;;;;4989482;28;20061;-86
2021/03/27 09:43:30;;;;;;;11.53;1.80;;;11.80;99.90;;;;;;4992372;28;20053;-85
2021/03/27 09:46:09;;;;;;;13.95;2.97;;;11.80;99.90;;;;;;5003953;28;20285;-85
2021/03/27 09:48:47;;;;;;;13.43;2.05;;;11.90;99.90;;;;;;5009849;28;20069;-85
2021/03/27 09:51:31;;;;;;;12.10;2.90;;;11.80;99.90;;;;;;5002830;28;20054;-86
2021/03/27 09:54:14;;;;;;;12.73;2.17;;;11.90;99.90;;;;;;4989297;28;20471;-85
2021/03/27 09:57:07;;;;;;;12.77;2.00;;;11.80;99.90;;;;;;4989447;28;20046;-86
2021/03/27 09:59:47;;;;;;;12.13;2.10;;;11.90;99.90;;;;;;4992272;28;22352;-85
2021/03/27 10:02:16;;;;;;;10.38;2.05;;;12.00;99.90;;;;;;4998043;28;20510;-86
2021/03/27 10:04:50;;;;;;;9.45;2.10;;;12.20;99.90;;;;;;5002776;28;20099;-86
2021/03/27 10:07:38;;;;;;;12.80;2.58;;;12.40;99.90;;;;;;4994033;28;20050;-86
2021/03/27 10:10:13;;;;;;;9.47;2.20;;;12.50;99.90;;;;;;4988901;28;20049;-84
2021/03/27 10:12:59;;;;;;;9.85;2.15;;;12.70;99.90;;;;;;5012914;28;20331;-86
2021/03/27 10:15:42;;;;;;;16.27;2.67;;;12.80;99.90;;;;;;5005790;28;20050;-85
2021/03/27 10:18:22;;;;;;;14.77;2.30;;;12.80;99.90;;;;;;5000552;28;20049;-82
2021/03/27 10:20:55;;;;;;;12.35;2.65;;;12.80;99.90;;;;;;5011230;28;20046;-85
2021/03/27 10:23:50;;;;;;;10.73;2.25;;;12.70;99.90;;;;;;5001510;28;20042;-86
2021/03/27 10:26:42;;;;;;;16.45;2.67;;;12.60;99.90;;;;;;4999025;28;20056;-85
2021/03/27 10:29:48;;;;;;;10.00;2.35;;;12.50;99.90;;;;;;4984087;28;20042;-88
2021/03/27 10:32:29;;;;;;;9.40;2.50;;;12.50;99.90;;;;;;5001076;28;20061;-86
2021/03/27 10:35:21;;;;;;;15.70;2.78;;;12.50;99.90;;;;;;5006822;28;20064;-86
2021/03/27 10:37:58;;;;;;;14.40;2.50;;;12.50;99.90;;;;;;4937008;28;20421;-87
2021/03/27 10:40:43;;;;;;;9.93;2.08;;;12.50;99.90;;;;;;4945859;28;20055;-83
2021/03/27 10:43:30;;;;;;;11.52;2.20;;;12.50;99.90;;;;;;4929379;28;20047;-85
2021/03/27 10:46:11;;;;;;;12.88;2.08;;;12.40;99.90;;;;;;4960595;28;20054;-83
2021/03/27 10:49:01;;;;;;;13.80;2.20;;;12.30;99.90;;;;;;4944516;28;20123;-81
2021/03/27 10:51:46;;;;;;;13.77;2.00;;;12.30;99.90;;;;;;4933935;28;20110;-82
2021/03/27 10:54:49;;;;;;;12.45;2.35;;;12.20;99.90;;;;;;4948146;28;20059;-84
2021/03/27 10:57:23;;;;;;;12.80;1.90;;;12.30;99.90;;;;;;4943755;28;20181;-90
2021/03/27 11:00:22;;;;;;;11.98;2.40;;;12.40;99.90;;;;;;4951440;28;20437;-86
2021/03/27 11:03:04;;;;;;;7.47;1.88;;;12.50;99.90;;;;;;4951189;28;20565;-83
2021/03/27 11:05:49;;;;;;;13.00;2.22;;;12.60;99.90;;;;;;4953232;28;20054;-82
2021/03/27 11:08:34;;;;;;;13.18;2.00;;;12.70;99.90;;;;;;4938082;28;20039;-82
2021/03/27 11:11:07;;;;;;;9.00;1.70;;;12.70;99.90;;;;;;4953515;28;20122;-82
2021/03/27 11:14:05;;;;;;;11.30;2.05;;;12.80;99.90;;;;;;4992270;28;20046;-82
2021/03/27 11:16:43;;;;;;;13.68;2.05;;;12.70;99.90;;;;;;5030604;28;20057;-83
2021/03/27 11:19:34;;;;;;;10.15;2.20;;;12.70;99.90;;;;;;5016658;28;20042;-82
2021/03/27 11:22:30;;;;;;;11.25;2.17;;;12.60;99.90;;;;;;5016116;28;20077;-82
2021/03/27 11:25:18;;;;;;;17.08;2.70;;;12.60;99.90;;;;;;4913483;29;20048;-84
2021/03/27 11:27:44;;;;;;;14.48;2.30;;;12.70;99.90;;;;;;4913608;29;20060;-85
2021/03/27 11:30:32;;;;;;;10.38;1.77;;;12.70;99.90;;;;;;4905276;29;20044;-86
2021/03/27 11:33:15;;;;;;;11.73;2.42;;;12.90;99.90;;;;;;4916234;29;20040;-86
2021/03/27 11:36:01;;;;;;;15.80;2.65;;;13.00;99.90;;;;;;4902654;29;20052;-85
2021/03/27 11:38:39;;;;;;;16.30;2.97;;;13.10;99.90;;;;;;4896994;29;20346;-83
2021/03/27 11:41:05;;;;;;;48.30;8.23;;;13.20;99.90;;;;;;4910313;29;20123;-83
2021/03/27 11:43:46;;;;;;;20.05;3.95;;;13.30;99.90;;;;;;4911721;29;20082;-86
2021/03/27 11:46:22;;;;;;;12.02;2.20;;;13.60;99.90;;;;;;4898768;29;20051;-84
2021/03/27 11:48:54;;;;;;;11.35;2.08;;;13.70;99.90;;;;;;4910784;29;20443;-84
2021/03/27 11:51:34;;;;;;;12.10;1.95;;;13.90;99.90;;;;;;4895161;29;20052;-83
2021/03/27 11:54:06;;;;;;;14.40;2.33;;;14.00;99.90;;;;;;4895346;29;20052;-84
2021/03/27 11:56:37;;;;;;;12.32;2.50;;;14.00;99.90;;;;;;4904647;29;20052;-85
2021/03/27 12:02:35;;;;;;;12.45;2.20;;;14.10;99.90;;;;;;4975312;28;20033;-88
2021/03/27 12:05:22;;;;;;;11.68;1.90;;;14.10;99.90;;;;;;5030375;28;20042;-89
2021/03/27 12:08:07;;;;;;;10.40;2.45;;;13.90;99.90;;;;;;4998003;28;20037;-86
2021/03/27 12:11:06;;;;;;;9.82;2.15;;;13.90;99.90;;;;;;5012444;28;20053;-84
2021/03/27 12:13:39;;;;;;;10.57;2.17;;;13.90;99.90;;;;;;5019490;28;20123;-85
2021/03/27 12:16:25;;;;;;;8.50;1.90;;;14.00;99.90;;;;;;5014501;28;20091;-84
2021/03/27 12:19:24;;;;;;;8.52;1.92;;;14.00;99.90;;;;;;5032580;28;20046;-83
2021/03/27 12:22:19;;;;;;;9.75;1.88;;;14.00;99.90;;;;;;5033000;28;20050;-83
2021/03/27 12:25:11;;;;;;;6.07;1.65;;;14.10;99.90;;;;;;5032316;28;20052;-84
2021/03/27 12:28:04;;;;;;;17.45;2.22;;;14.00;99.90;;;;;;5020804;28;20034;-85
2021/03/27 12:30:36;;;;;;;10.77;2.17;;;14.10;99.90;;;;;;4934647;29;20142;-84
2021/03/27 12:33:08;;;;;;;12.60;1.73;;;14.00;99.90;;;;;;4935691;29;20059;-86
2021/03/27 12:35:37;;;;;;;9.00;1.77;;;14.00;99.90;;;;;;4944152;28;20058;-87
2021/03/27 12:38:06;;;;;;;11.73;2.35;;;14.00;99.90;;;;;;4933695;29;20054;-85
2021/03/27 12:41:04;;;;;;;12.98;2.40;;;14.00;99.90;;;;;;4934093;29;20051;-86
2021/03/27 12:43:41;;;;;;;10.20;2.35;;;13.90;99.90;;;;;;4934771;29;20047;-85
2021/03/27 12:46:13;;;;;;;12.77;2.50;;;13.50;99.90;;;;;;4936235;28;20419;-86
2021/03/27 12:49:08;;;;;;;9.10;1.73;;;13.30;99.90;;;;;;4935971;29;20572;-86
2021/03/27 12:51:47;;;;;;;12.95;2.17;;;13.10;99.90;;;;;;4935668;29;20102;-87
2021/03/27 12:54:38;;;;;;;10.63;1.95;;;13.00;99.90;;;;;;4931936;28;20043;-85
2021/03/27 12:57:34;;;;;;;14.52;2.42;;;12.80;99.90;;;;;;4934547;28;20142;-85
2021/03/27 13:00:37;;;;;;;14.23;2.17;;;12.70;99.90;;;;;;4936926;28;20470;-85
2021/03/27 13:03:24;;;;;;;9.75;1.73;;;12.80;99.90;;;;;;4933367;28;20043;-87
2021/03/27 13:06:14;;;;;;;13.60;1.77;;;12.90;99.90;;;;;;4951421;28;20492;-84
2021/03/27 13:08:47;;;;;;;7.45;1.50;;;13.00;99.90;;;;;;5022490;28;20053;-83
2021/03/27 13:11:36;;;;;;;7.75;2.00;;;13.10;99.90;;;;;;5015485;28;20053;-84
2021/03/27 13:14:37;;;;;;;30.40;3.40;;;13.30;99.90;;;;;;5000195;28;20088;-82
2021/03/27 13:17:12;;;;;;;18.13;2.30;;;13.40;99.90;;;;;;5023409;28;20049;-86
2021/03/27 13:19:48;;;;;;;34.75;3.42;;;13.60;99.90;;;;;;5012997;28;20054;-86
2021/03/27 13:22:39;;;;;;;6.35;1.50;;;13.70;99.90;;;;;;5009920;28;20076;-88
2021/03/27 13:25:50;;;;;;;10.55;2.20;;;13.90;99.90;;;;;;5026705;28;20045;-86
2021/03/27 13:28:19;;;;;;;7.72;1.48;;;13.90;99.90;;;;;;5006273;28;20045;-86
2021/03/27 13:30:55;;;;;;;6.13;1.35;;;13.90;99.90;;;;;;5029231;28;20052;-86
2021/03/27 13:33:40;;;;;;;7.68;1.35;;;14.00;99.90;;;;;;5013154;28;20506;-86
2021/03/27 13:36:24;;;;;;;9.82;2.00;;;14.00;99.90;;;;;;5024659;28;20588;-86
2021/03/27 13:39:29;;;;;;;6.63;1.60;;;14.00;99.90;;;;;;5009391;28;20045;-86
2021/03/27 13:42:04;;;;;;;6.90;1.58;;;14.00;99.90;;;;;;4933899;29;20043;-86
2021/03/27 13:44:52;;;;;;;9.23;1.92;;;14.10;99.90;;;;;;4950788;28;20043;-85
2021/03/27 13:47:39;;;;;;;9.68;1.50;;;14.10;99.90;;;;;;4949030;28;20077;-86
2021/03/27 13:50:35;;;;;;;12.05;2.20;;;14.20;99.90;;;;;;4944039;28;20134;-85
2021/03/27 13:53:07;;;;;;;15.32;2.15;;;14.20;99.90;;;;;;4935818;28;20066;-86
2021/03/27 13:55:54;;;;;;;12.10;2.50;;;14.10;99.90;;;;;;4936936;28;20046;-86
2021/03/27 13:58:24;;;;;;;11.73;2.17;;;14.20;99.90;;;;;;4943645;28;20067;-87
2021/03/27 14:00:59;;;;;;;11.73;1.98;;;14.30;99.90;;;;;;4945337;28;20103;-86
2021/03/27 14:03:52;;;;;;;8.13;1.95;;;14.30;99.90;;;;;;4945579;28;20179;-86
2021/03/27 14:06:52;;;;;;;12.80;1.95;;;14.50;99.90;;;;;;4931579;28;20043;-92
2021/03/27 14:10:08;;;;;;;7.97;1.60;;;14.50;99.90;;;;;;4932060;28;20416;-91
2021/03/27 14:12:58;;;;;;;10.57;1.95;;;14.50;99.90;;;;;;4915051;28;20513;-91
2021/03/27 14:15:45;;;;;;;12.27;2.13;;;14.40;99.90;;;;;;4959197;28;20491;-91
2021/03/27 14:18:51;;;;;;;15.52;2.30;;;14.20;99.90;;;;;;5002084;28;20049;-86